createdAt,value
2018-04-17T00:01:16.352Z,14.10
2018-04-17T00:03:42.773Z,14.10
2018-04-17T00:06:09.172Z,14.10
2018-04-17T00:08:35.612Z,14.10
2018-04-17T00:11:01.980Z,14.10
2018-04-17T00:13:28.402Z,14.00
2018-04-17T00:15:54.761Z,13.90
2018-04-17T00:18:21.149Z,13.80
2018-04-17T00:20:47.524Z,13.80
2018-04-17T00:23:13.929Z,13.70
2018-04-17T00:25:40.299Z,13.80
2018-04-17T00:28:06.688Z,13.70
2018-04-17T00:30:33.065Z,13.60
2018-04-17T00:32:59.432Z,13.60
2018-04-17T00:35:25.823Z,13.50
2018-04-17T00:37:52.216Z,13.50
2018-04-17T00:40:18.589Z,13.50
2018-04-17T00:42:45.695Z,13.50
2018-04-17T00:45:12.109Z,13.50
2018-04-17T00:47:38.464Z,13.40
2018-04-17T00:50:04.896Z,13.50
2018-04-17T00:52:31.291Z,13.50
2018-04-17T00:54:57.723Z,13.50
2018-04-17T00:57:24.072Z,13.40
2018-04-17T00:59:50.475Z,13.40
2018-04-17T01:02:16.844Z,13.40
2018-04-17T01:04:43.328Z,13.30
2018-04-17T01:07:09.704Z,13.20
2018-04-17T01:09:36.079Z,13.10
2018-04-17T01:12:03.472Z,13.00
2018-04-17T01:14:29.877Z,12.90
2018-04-17T01:16:56.252Z,12.90
2018-04-17T01:19:22.644Z,12.90
2018-04-17T01:21:49.036Z,12.90
2018-04-17T01:24:16.177Z,12.80
2018-04-17T01:26:42.654Z,12.80
2018-04-17T01:29:09.048Z,12.70
2018-04-17T01:31:36.196Z,12.60
2018-04-17T01:34:03.366Z,12.60
2018-04-17T01:36:29.763Z,12.60
2018-04-17T01:38:56.125Z,12.70
2018-04-17T01:41:22.521Z,12.70
2018-04-17T01:43:48.911Z,12.70
2018-04-17T01:46:15.296Z,12.60
2018-04-17T01:48:42.426Z,12.60
2018-04-17T01:51:08.802Z,12.60
2018-04-17T01:53:35.236Z,12.50
2018-04-17T01:56:01.611Z,12.40
2018-04-17T01:58:27.984Z,12.40
2018-04-17T02:00:55.110Z,12.30
2018-04-17T02:03:21.477Z,12.30
2018-04-17T02:05:47.866Z,12.30
2018-04-17T02:08:14.256Z,12.20
2018-04-17T02:10:41.517Z,12.20
2018-04-17T02:13:07.875Z,12.20
2018-04-17T02:15:34.306Z,12.20
2018-04-17T02:18:00.644Z,12.20
2018-04-17T02:20:27.067Z,12.10
2018-04-17T02:22:53.417Z,12.00
2018-04-17T02:25:20.558Z,12.00
2018-04-17T02:27:46.923Z,12.00
2018-04-17T02:30:13.314Z,12.10
2018-04-17T02:32:39.665Z,12.10
2018-04-17T02:35:06.789Z,12.00
2018-04-17T02:37:33.170Z,12.00
2018-04-17T02:39:59.527Z,12.00
2018-04-17T02:42:25.967Z,12.00
2018-04-17T02:44:52.335Z,12.00
2018-04-17T02:47:19.491Z,12.00
2018-04-17T02:49:47.186Z,12.00
2018-04-17T02:52:13.573Z,12.10
2018-04-17T02:54:39.979Z,11.90
2018-04-17T02:57:06.347Z,11.80
2018-04-17T02:59:32.757Z,11.90
2018-04-17T03:01:59.213Z,11.80
2018-04-17T03:04:25.653Z,11.80
2018-04-17T03:06:52.080Z,11.70
2018-04-17T03:09:18.495Z,11.60
2018-04-17T03:11:45.742Z,11.60
2018-04-17T03:14:12.859Z,11.50
2018-04-17T03:16:39.234Z,11.50
2018-04-17T03:19:05.641Z,11.50
2018-04-17T03:21:32.738Z,11.60
2018-04-17T03:23:59.110Z,11.60
2018-04-17T03:26:26.293Z,11.50
2018-04-17T03:28:52.690Z,11.50
2018-04-17T03:31:19.053Z,11.40
2018-04-17T03:33:45.446Z,11.40
2018-04-17T03:36:11.818Z,11.30
2018-04-17T03:38:38.178Z,11.10
2018-04-17T03:41:04.595Z,11.00
2018-04-17T03:43:30.984Z,10.90
2018-04-17T03:45:58.121Z,11.00
2018-04-17T03:48:25.256Z,11.10
2018-04-17T03:50:51.661Z,11.10
2018-04-17T03:53:18.032Z,11.20
2018-04-17T03:55:45.130Z,11.10
2018-04-17T03:58:11.569Z,11.10
2018-04-17T04:00:37.980Z,11.00
2018-04-17T04:03:04.374Z,11.00
2018-04-17T04:05:31.544Z,11.00
2018-04-17T04:07:57.964Z,11.00
2018-04-17T04:10:24.403Z,11.00
2018-04-17T04:12:50.880Z,11.00
2018-04-17T04:15:17.216Z,11.00
2018-04-17T04:18:02.132Z,10.90
2018-04-17T04:20:47.050Z,10.80
2018-04-17T04:23:31.754Z,10.80
2018-04-17T04:26:21.091Z,10.80
2018-04-17T04:28:47.508Z,10.90
2018-04-17T04:31:13.856Z,10.90
2018-04-17T04:33:40.225Z,10.90
2018-04-17T04:36:06.614Z,10.90
2018-04-17T04:38:33.004Z,10.80
2018-04-17T04:40:59.469Z,10.80
2018-04-17T04:43:25.854Z,10.80
2018-04-17T04:45:52.239Z,10.90
2018-04-17T04:48:18.612Z,11.00
2018-04-17T04:50:44.985Z,11.00
2018-04-17T04:53:11.357Z,11.00
2018-04-17T04:55:37.740Z,11.00
2018-04-17T04:58:04.217Z,10.90
2018-04-17T05:00:30.619Z,11.00
2018-04-17T05:02:57.042Z,11.00
2018-04-17T05:05:23.445Z,11.00
2018-04-17T05:07:49.940Z,10.90
2018-04-17T05:10:17.091Z,10.60
2018-04-17T05:12:43.488Z,10.60
2018-04-17T05:15:09.884Z,10.60
2018-04-17T05:17:36.307Z,10.60
2018-04-17T05:20:02.754Z,10.60
2018-04-17T05:22:29.121Z,10.70
2018-04-17T05:24:55.525Z,10.80
2018-04-17T05:27:21.965Z,10.70
2018-04-17T05:29:48.436Z,10.80
2018-04-17T05:32:14.769Z,10.80
2018-04-17T05:34:41.972Z,10.90
2018-04-17T05:37:08.358Z,10.90
2018-04-17T05:39:35.598Z,11.10
2018-04-17T05:42:02.839Z,11.20
2018-04-17T05:44:29.247Z,11.20
2018-04-17T05:46:55.733Z,11.30
2018-04-17T05:49:23.016Z,11.40
2018-04-17T05:51:49.454Z,11.50
2018-04-17T05:54:15.840Z,11.60
2018-04-17T05:56:42.375Z,11.60
2018-04-17T05:59:08.790Z,11.60
2018-04-17T06:01:35.932Z,11.60
2018-04-17T06:04:02.415Z,11.60
2018-04-17T06:06:28.812Z,11.70
2018-04-17T06:08:55.225Z,11.80
2018-04-17T06:11:21.657Z,11.90
2018-04-17T06:13:48.048Z,11.90
2018-04-17T06:16:14.419Z,12.00
2018-04-17T06:18:41.616Z,12.30
2018-04-17T06:21:08.095Z,12.30
2018-04-17T06:23:36.159Z,12.50
2018-04-17T06:26:02.591Z,12.40
2018-04-17T06:28:29.028Z,12.60
2018-04-17T06:30:55.409Z,12.60
2018-04-17T06:33:21.784Z,12.70
2018-04-17T06:35:48.913Z,12.80
2018-04-17T06:38:15.348Z,12.80
2018-04-17T06:40:41.729Z,12.90
2018-04-17T06:43:08.131Z,13.00
2018-04-17T06:45:34.481Z,13.10
2018-04-17T06:48:00.882Z,13.30
2018-04-17T06:50:27.255Z,13.40
2018-04-17T06:52:53.622Z,13.50
2018-04-17T06:55:20.184Z,13.60
2018-04-17T06:57:46.612Z,13.60
2018-04-17T07:00:13.052Z,13.60
2018-04-17T07:02:40.165Z,13.70
2018-04-17T07:05:06.553Z,13.70
2018-04-17T07:07:33.003Z,13.90
2018-04-17T07:09:59.401Z,14.00
2018-04-17T07:12:25.932Z,14.10
2018-04-17T07:14:52.331Z,14.20
2018-04-17T07:17:18.718Z,14.30
2018-04-17T07:19:45.110Z,14.40
2018-04-17T07:22:11.514Z,14.40
2018-04-17T07:24:37.900Z,14.50
2018-04-17T07:27:04.335Z,14.70
2018-04-17T07:29:31.405Z,14.80
2018-04-17T07:31:58.515Z,15.00
2018-04-17T07:34:24.936Z,15.00
2018-04-17T07:36:52.156Z,15.00
2018-04-17T07:39:18.617Z,14.90
2018-04-17T07:41:45.067Z,15.00
2018-04-17T07:44:12.260Z,15.30
2018-04-17T07:46:38.714Z,15.30
2018-04-17T07:49:05.994Z,15.20
2018-04-17T07:51:33.147Z,15.00
2018-04-17T07:53:59.590Z,14.90
2018-04-17T07:56:26.033Z,15.10
2018-04-17T07:58:52.582Z,15.30
2018-04-17T08:01:18.993Z,15.50
2018-04-17T08:03:45.397Z,15.60
2018-04-17T08:06:11.860Z,15.70
2018-04-17T08:08:38.304Z,15.60
2018-04-17T08:11:04.730Z,15.70
2018-04-17T08:13:31.220Z,15.80
2018-04-17T08:15:57.586Z,15.90
2018-04-17T08:18:23.966Z,16.00
2018-04-17T08:20:50.389Z,16.10
2018-04-17T08:23:16.783Z,16.20
2018-04-17T08:25:43.196Z,16.30
2018-04-17T08:28:09.620Z,16.20
2018-04-17T08:30:36.774Z,16.30
2018-04-17T08:33:03.147Z,16.30
2018-04-17T08:35:29.547Z,16.40
2018-04-17T08:37:55.929Z,16.60
2018-04-17T08:40:22.605Z,16.70
2018-04-17T08:42:49.043Z,16.70
2018-04-17T08:45:15.527Z,16.90
2018-04-17T08:47:41.947Z,17.00
2018-04-17T08:50:08.430Z,17.00
2018-04-17T08:52:35.584Z,17.20
2018-04-17T08:55:02.727Z,17.30
2018-04-17T08:57:29.120Z,17.30
2018-04-17T08:59:55.519Z,17.30
2018-04-17T09:02:21.941Z,17.40
2018-04-17T09:04:48.372Z,17.40
2018-04-17T09:07:14.795Z,17.40
2018-04-17T09:09:41.220Z,17.50
2018-04-17T09:12:07.613Z,17.50
2018-04-17T09:14:34.059Z,17.50
2018-04-17T09:17:00.561Z,17.50
2018-04-17T09:19:27.052Z,17.70
2018-04-17T09:21:53.423Z,17.80
2018-04-17T09:24:19.840Z,17.80
2018-04-17T09:26:46.319Z,17.80
2018-04-17T09:29:12.824Z,17.80
2018-04-17T09:31:39.323Z,17.70
2018-04-17T09:34:05.797Z,17.80
2018-04-17T09:36:32.260Z,18.00
2018-04-17T09:38:58.660Z,18.10
2018-04-17T09:41:25.057Z,18.20
2018-04-17T09:43:51.464Z,18.30
2018-04-17T09:46:18.624Z,18.40
2018-04-17T09:48:45.080Z,18.40
2018-04-17T09:51:11.488Z,18.40
2018-04-17T09:53:37.864Z,18.50
2018-04-17T09:56:04.353Z,18.50
2018-04-17T09:58:30.753Z,18.60
2018-04-17T10:00:57.934Z,18.60
2018-04-17T10:03:24.341Z,18.60
2018-04-17T10:05:50.829Z,18.60
2018-04-17T10:08:17.270Z,18.70
2018-04-17T10:10:43.728Z,18.60
2018-04-17T10:13:10.886Z,18.80
2018-04-17T10:15:37.329Z,18.80
2018-04-17T10:18:04.487Z,19.00
2018-04-17T10:20:30.917Z,19.00
2018-04-17T10:22:57.306Z,19.10
2018-04-17T10:25:23.710Z,19.20
2018-04-17T10:27:50.260Z,19.10
2018-04-17T10:30:16.666Z,19.20
2018-04-17T10:32:43.097Z,19.10
2018-04-17T10:35:09.504Z,19.20
2018-04-17T10:37:35.908Z,19.30
2018-04-17T10:40:03.216Z,19.40
2018-04-17T10:42:29.608Z,19.40
2018-04-17T10:44:56.773Z,19.50
2018-04-17T10:47:23.174Z,19.50
2018-04-17T10:49:49.579Z,19.60
2018-04-17T10:52:15.980Z,19.60
2018-04-17T10:54:42.386Z,19.80
2018-04-17T10:57:09.502Z,19.80
2018-04-17T10:59:35.893Z,19.70
2018-04-17T11:02:02.309Z,19.70
2018-04-17T11:04:28.800Z,19.60
2018-04-17T11:06:55.940Z,19.50
2018-04-17T11:09:29.986Z,19.40
2018-04-17T11:11:56.346Z,19.40
2018-04-17T11:14:22.775Z,19.40
2018-04-17T11:16:49.315Z,19.30
2018-04-17T11:19:15.733Z,19.40
2018-04-17T11:21:42.133Z,19.50
2018-04-17T11:24:09.486Z,19.80
2018-04-17T11:26:36.640Z,19.80
2018-04-17T11:29:03.067Z,19.80
2018-04-17T11:31:29.488Z,19.70
2018-04-17T11:33:55.921Z,19.70
2018-04-17T11:36:23.147Z,19.50
2018-04-17T11:38:49.634Z,19.50
2018-04-17T11:41:16.213Z,19.50
2018-04-17T11:43:42.605Z,19.50
2018-04-17T11:46:09.063Z,19.60
2018-04-17T11:48:35.560Z,19.60
2018-04-17T11:51:01.958Z,19.60
2018-04-17T11:53:28.413Z,19.70
2018-04-17T11:55:54.921Z,19.90
2018-04-17T11:58:21.384Z,19.90
2018-04-17T12:00:47.862Z,20.00
2018-04-17T12:03:21.423Z,19.80
2018-04-17T12:05:47.868Z,19.80
2018-04-17T12:08:15.111Z,20.10
2018-04-17T12:10:42.324Z,20.30
2018-04-17T12:13:08.754Z,20.20
2018-04-17T12:15:35.201Z,20.40
2018-04-17T12:18:01.952Z,20.50
2018-04-17T12:20:28.409Z,20.40
2018-04-17T12:22:54.807Z,20.40
2018-04-17T12:25:21.349Z,20.30
2018-04-17T12:27:47.775Z,20.30
2018-04-17T12:30:14.212Z,20.30
2018-04-17T12:32:40.636Z,20.20
2018-04-17T12:35:07.147Z,20.40
2018-04-17T12:37:33.590Z,20.40
2018-04-17T12:40:00.741Z,20.40
2018-04-17T12:42:27.963Z,20.40
2018-04-17T12:44:54.423Z,20.40
2018-04-17T12:47:20.836Z,20.40
2018-04-17T12:49:47.287Z,20.40
2018-04-17T12:52:14.453Z,20.50
2018-04-17T12:54:40.876Z,20.50
2018-04-17T12:57:07.333Z,20.50
2018-04-17T12:59:33.735Z,20.70
2018-04-17T13:02:00.201Z,21.00
2018-04-17T13:04:26.689Z,21.00
2018-04-17T13:06:53.182Z,20.90
2018-04-17T13:09:19.611Z,20.90
2018-04-17T13:11:47.042Z,20.80
2018-04-17T13:14:13.526Z,20.90
2018-04-17T13:16:40.008Z,20.90
2018-04-17T13:19:07.130Z,21.00
2018-04-17T13:21:33.606Z,21.00
2018-04-17T13:24:00.083Z,21.00
2018-04-17T13:26:26.616Z,20.90
2018-04-17T13:28:53.073Z,21.00
2018-04-17T13:31:20.219Z,21.00
2018-04-17T13:33:47.391Z,21.00
2018-04-17T13:36:13.787Z,21.00
2018-04-17T13:38:40.968Z,21.10
2018-04-17T13:41:07.391Z,21.10
2018-04-17T13:43:33.873Z,21.10
2018-04-17T13:46:01.723Z,21.20
2018-04-17T13:48:28.265Z,21.30
2018-04-17T13:50:54.747Z,21.40
2018-04-17T13:53:21.160Z,21.50
2018-04-17T13:55:47.630Z,21.30
2018-04-17T13:58:14.028Z,21.40
2018-04-17T14:00:41.291Z,21.70
2018-04-17T14:03:08.469Z,21.90
2018-04-17T14:05:34.938Z,21.90
2018-04-17T14:08:01.362Z,22.00
2018-04-17T14:10:27.816Z,22.10
2018-04-17T14:12:54.246Z,22.20
2018-04-17T14:15:20.664Z,22.30
2018-04-17T14:17:47.106Z,22.40
2018-04-17T14:20:13.538Z,22.40
2018-04-17T14:22:39.963Z,22.40
2018-04-17T14:25:07.177Z,22.20
2018-04-17T14:27:33.623Z,22.20
2018-04-17T14:30:00.009Z,22.40
2018-04-17T14:32:26.445Z,22.50
2018-04-17T14:34:53.545Z,22.50
2018-04-17T14:37:20.041Z,22.40
2018-04-17T14:39:46.469Z,22.50
2018-04-17T14:42:14.457Z,22.60
2018-04-17T14:44:40.932Z,22.70
2018-04-17T14:47:08.076Z,22.70
2018-04-17T14:49:34.468Z,22.60
2018-04-17T14:52:00.968Z,22.70
2018-04-17T14:54:28.167Z,22.80
2018-04-17T14:56:54.605Z,22.80
2018-04-17T14:59:20.988Z,22.80
2018-04-17T15:04:43.242Z,23.40
2018-04-17T15:07:09.661Z,23.40
2018-04-17T15:09:36.059Z,24.30
2018-04-17T15:12:02.489Z,25.70
2018-04-17T15:14:28.877Z,26.00
2018-04-17T15:16:55.338Z,27.20
2018-04-17T15:19:22.529Z,27.30
2018-04-17T15:21:48.995Z,27.30
2018-04-17T15:24:15.377Z,28.00
2018-04-17T15:26:41.851Z,28.00
2018-04-17T15:29:08.259Z,27.50
2018-04-17T15:31:35.460Z,26.60
2018-04-17T15:34:01.902Z,26.50
2018-04-17T15:36:28.336Z,26.00
2018-04-17T15:38:54.785Z,25.70
2018-04-17T15:41:21.182Z,24.60
2018-04-17T15:43:47.659Z,24.20
2018-04-17T15:46:14.792Z,23.90
2018-04-17T15:48:41.995Z,23.60
2018-04-17T15:51:09.434Z,23.50
2018-04-17T15:53:36.643Z,23.20
2018-04-17T15:56:03.139Z,23.20
2018-04-17T15:58:29.540Z,23.20
2018-04-17T16:00:56.192Z,23.30
2018-04-17T16:03:22.623Z,23.20
2018-04-17T16:05:49.148Z,23.20
2018-04-17T16:08:16.277Z,23.10
2018-04-17T16:10:42.821Z,23.10
2018-04-17T16:13:09.957Z,22.90
2018-04-17T16:15:36.371Z,22.90
2018-04-17T16:18:02.858Z,22.70
2018-04-17T16:20:29.280Z,22.70
2018-04-17T16:22:55.655Z,22.60
2018-04-17T16:25:22.188Z,22.60
2018-04-17T16:27:48.633Z,22.60
2018-04-17T16:30:15.107Z,22.60
2018-04-17T16:32:41.595Z,22.60
2018-04-17T16:35:08.079Z,22.50
2018-04-17T16:37:34.521Z,22.40
2018-04-17T16:40:00.980Z,22.30
2018-04-17T16:42:27.507Z,22.20
2018-04-17T16:44:53.965Z,22.20
2018-04-17T16:47:20.383Z,22.20
2018-04-17T16:49:46.787Z,22.10
2018-04-17T16:52:13.916Z,22.10
2018-04-17T16:54:40.561Z,22.10
2018-04-17T16:57:07.344Z,22.10
2018-04-17T16:59:33.783Z,22.10
2018-04-17T17:02:00.224Z,22.00
2018-04-17T17:04:26.633Z,22.00
2018-04-17T17:06:53.023Z,22.00
2018-04-17T17:09:19.430Z,22.00
2018-04-17T17:11:46.641Z,21.90
2018-04-17T17:14:13.074Z,21.90
2018-04-17T17:16:44.540Z,21.80
2018-04-17T17:19:10.967Z,21.90
2018-04-17T17:21:37.385Z,21.90
2018-04-17T17:24:03.804Z,21.90
2018-04-17T17:26:30.216Z,21.90
2018-04-17T17:28:56.702Z,21.80
2018-04-17T17:31:23.120Z,21.80
2018-04-17T17:33:49.651Z,21.90
2018-04-17T17:36:16.120Z,21.80
2018-04-17T17:38:43.367Z,21.80
2018-04-17T17:41:10.551Z,21.70
2018-04-17T17:43:37.081Z,21.80
2018-04-17T17:46:04.328Z,21.70
2018-04-17T17:48:30.820Z,21.70
2018-04-17T17:50:57.356Z,21.70
2018-04-17T17:53:23.727Z,21.60
2018-04-17T17:55:50.349Z,21.60
2018-04-17T17:58:16.840Z,21.50
2018-04-17T18:00:43.306Z,21.50
2018-04-17T18:03:09.729Z,21.40
2018-04-17T18:05:36.162Z,21.40
2018-04-17T18:08:02.596Z,21.40
2018-04-17T18:10:30.005Z,21.30
2018-04-17T18:12:56.458Z,21.30
2018-04-17T18:15:23.037Z,21.20
2018-04-17T18:17:50.272Z,21.20
2018-04-17T18:20:16.718Z,21.20
2018-04-17T18:22:43.173Z,21.20
2018-04-17T18:25:09.759Z,21.10
2018-04-17T18:27:36.272Z,21.00
2018-04-17T18:30:02.787Z,21.00
2018-04-17T18:32:29.246Z,20.90
2018-04-17T18:34:56.377Z,20.70
2018-04-17T18:37:22.828Z,20.70
2018-04-17T18:39:49.331Z,20.70
2018-04-17T18:42:15.726Z,20.60
2018-04-17T18:44:42.239Z,20.50
2018-04-17T18:47:09.507Z,20.20
2018-04-17T18:49:36.094Z,20.20
2018-04-17T18:52:08.045Z,20.00
2018-04-17T18:54:34.893Z,20.00
2018-04-17T18:57:01.320Z,19.70
2018-04-17T18:59:27.831Z,19.60
2018-04-17T19:01:54.404Z,19.50
2018-04-17T19:04:20.921Z,19.30
2018-04-17T19:06:49.350Z,19.20
2018-04-17T19:09:18.952Z,19.10
2018-04-17T19:11:45.446Z,19.10
2018-04-17T19:14:11.922Z,19.10
2018-04-17T19:16:38.389Z,19.10
2018-04-17T19:19:05.227Z,19.10
2018-04-17T19:21:31.747Z,19.00
2018-04-17T19:23:58.275Z,18.70
2018-04-17T19:26:24.746Z,18.60
2018-04-17T19:28:51.196Z,18.60
2018-04-17T19:31:18.674Z,18.50
2018-04-17T19:33:45.313Z,18.50
2018-04-17T19:36:12.648Z,18.40
2018-04-17T19:38:39.986Z,18.40
2018-04-17T19:41:06.420Z,18.30
2018-04-17T19:43:32.869Z,18.30
2018-04-17T19:46:00.153Z,18.30
2018-04-17T19:48:26.643Z,18.30
2018-04-17T19:50:53.146Z,18.30
2018-04-17T19:53:19.596Z,18.10
2018-04-17T19:55:46.101Z,18.00
2018-04-17T19:58:13.451Z,17.70
2018-04-17T20:00:39.925Z,17.70
2018-04-17T20:03:06.461Z,17.60
2018-04-17T20:05:32.951Z,17.50
2018-04-17T20:07:59.586Z,17.40
2018-04-17T20:10:26.095Z,17.50
2018-04-17T20:12:53.312Z,17.50
2018-04-17T20:15:19.757Z,17.50
2018-04-17T20:17:46.215Z,17.50
2018-04-17T20:20:12.793Z,17.40
2018-04-17T20:22:39.357Z,17.40
2018-04-17T20:25:05.898Z,17.30
2018-04-17T20:27:33.085Z,17.20
2018-04-17T20:29:59.585Z,17.10
2018-04-17T20:32:26.082Z,17.00
2018-04-17T20:34:52.516Z,17.00
2018-04-17T20:37:19.030Z,16.90
2018-04-17T20:39:45.457Z,16.90
2018-04-17T20:42:12.711Z,16.80
2018-04-17T20:44:39.226Z,16.80
2018-04-17T20:47:05.657Z,16.80
2018-04-17T20:49:32.125Z,16.90
2018-04-17T20:51:58.637Z,16.80
2018-04-17T20:54:25.110Z,16.70
2018-04-17T20:56:52.284Z,16.60
2018-04-17T20:59:18.760Z,16.60
2018-04-17T21:01:45.238Z,16.60
2018-04-17T21:04:12.416Z,16.50
2018-04-17T21:06:39.610Z,16.40
2018-04-17T21:09:06.087Z,16.40
2018-04-17T21:11:32.564Z,16.40
2018-04-17T21:13:59.150Z,16.40
2018-04-17T21:16:25.686Z,16.30
2018-04-17T21:18:52.193Z,16.30
2018-04-17T21:21:18.683Z,16.30
2018-04-17T21:23:45.253Z,16.30
2018-04-17T21:26:11.688Z,16.20
2018-04-17T21:28:38.127Z,16.20
2018-04-17T21:31:05.273Z,16.00
2018-04-17T21:33:31.744Z,16.00
2018-04-17T21:35:58.245Z,16.00
2018-04-17T21:38:24.677Z,15.90
2018-04-17T21:40:51.810Z,15.80
2018-04-17T21:43:18.251Z,15.80
2018-04-17T21:45:44.741Z,15.90
2018-04-17T21:48:11.205Z,15.80
2018-04-17T21:50:37.640Z,15.80
2018-04-17T21:53:04.048Z,15.70
2018-04-17T21:55:30.549Z,15.70
2018-04-17T21:57:56.951Z,15.70
2018-04-17T22:00:24.140Z,15.60
2018-04-17T22:02:51.298Z,15.60
2018-04-17T22:05:17.778Z,15.60
2018-04-17T22:07:44.949Z,15.70
2018-04-17T22:10:11.402Z,15.70
2018-04-17T22:12:37.813Z,15.60
2018-04-17T22:15:04.217Z,15.60
2018-04-17T22:17:31.412Z,15.50
2018-04-17T22:19:57.830Z,15.50
2018-04-17T22:22:24.284Z,15.50
2018-04-17T22:24:50.684Z,15.60
2018-04-17T22:27:17.140Z,15.50
2018-04-17T22:29:44.321Z,15.40
2018-04-17T22:32:10.737Z,15.30
2018-04-17T22:34:37.199Z,15.30
2018-04-17T22:37:03.716Z,15.20
2018-04-17T22:39:30.189Z,15.00
2018-04-17T22:41:57.372Z,15.00
2018-04-17T22:44:23.839Z,14.90
2018-04-17T22:46:50.235Z,14.80
2018-04-17T22:49:16.667Z,14.80
2018-04-17T22:51:43.081Z,14.90
2018-04-17T22:54:09.516Z,14.90
2018-04-17T22:56:35.993Z,15.00
2018-04-17T22:59:02.439Z,15.10
2018-04-17T23:01:28.857Z,15.00
2018-04-17T23:03:55.229Z,15.00
2018-04-17T23:06:21.669Z,14.80
2018-04-17T23:08:48.077Z,14.60
2018-04-17T23:11:15.247Z,14.60
2018-04-17T23:13:41.676Z,14.60
2018-04-17T23:16:08.816Z,14.50
2018-04-17T23:18:35.940Z,14.40
2018-04-17T23:21:02.329Z,14.40
2018-04-17T23:23:28.750Z,14.40
2018-04-17T23:25:55.173Z,14.30
2018-04-17T23:28:21.550Z,14.20
2018-04-17T23:30:47.992Z,14.20
2018-04-17T23:33:14.388Z,14.30
2018-04-17T23:35:40.789Z,14.40
2018-04-17T23:38:07.213Z,14.40
2018-04-17T23:40:34.387Z,14.30
2018-04-17T23:43:00.764Z,14.30
2018-04-17T23:45:27.235Z,14.20
2018-04-17T23:47:53.665Z,14.20
2018-04-17T23:50:20.812Z,14.30
2018-04-17T23:52:47.924Z,14.20
2018-04-17T23:55:14.333Z,14.20
2018-04-17T23:57:42.445Z,14.10
